createdAt,value
2023-01-23T00:01:15.737Z,15.50
2023-01-23T00:03:43.104Z,16.52
2023-01-23T00:06:15.431Z,16.45
2023-01-23T00:08:45.640Z,15.95
2023-01-23T00:11:16.622Z,15.75
2023-01-23T00:13:43.700Z,15.10
2023-01-23T00:16:23.367Z,13.80
2023-01-23T00:18:50.975Z,15.15
2023-01-23T00:21:20.945Z,16.25
2023-01-23T00:23:50.644Z,15.00
2023-01-23T00:26:28.310Z,15.05
2023-01-23T00:28:56.143Z,13.27
2023-01-23T00:31:28.869Z,12.98
2023-01-23T00:34:01.835Z,13.43
2023-01-23T00:36:34.434Z,13.30
2023-01-23T00:39:01.817Z,12.32
2023-01-23T00:41:28.812Z,11.85
2023-01-23T00:43:55.903Z,11.18
2023-01-23T00:46:23.397Z,11.23
2023-01-23T00:48:53.678Z,10.40
2023-01-23T00:51:20.966Z,11.57
2023-01-23T00:53:48.233Z,12.43
2023-01-23T00:56:15.102Z,11.75
2023-01-23T00:58:44.178Z,12.35
2023-01-23T01:01:12.002Z,12.38
2023-01-23T01:03:38.676Z,11.65
2023-01-23T01:06:07.950Z,11.20
2023-01-23T01:08:35.148Z,12.57
2023-01-23T01:11:02.288Z,10.20
2023-01-23T01:13:29.056Z,10.98
2023-01-23T01:15:56.183Z,12.13
2023-01-23T01:18:23.229Z,10.45
2023-01-23T01:20:51.413Z,11.13
2023-01-23T01:23:19.089Z,10.45
2023-01-23T01:25:46.005Z,10.90
2023-01-23T01:28:13.403Z,12.73
2023-01-23T01:30:41.489Z,11.32
2023-01-23T01:33:08.797Z,10.50
2023-01-23T01:35:35.836Z,11.45
2023-01-23T01:38:02.899Z,10.57
2023-01-23T01:40:33.827Z,11.15
2023-01-23T01:43:06.714Z,11.45
2023-01-23T01:45:58.416Z,11.07
2023-01-23T01:48:31.461Z,12.38
2023-01-23T01:51:00.909Z,11.55
2023-01-23T01:53:31.344Z,10.48
2023-01-23T01:55:59.095Z,12.48
2023-01-23T01:58:27.769Z,14.23
2023-01-23T02:00:55.452Z,12.35
2023-01-23T02:03:22.997Z,11.18
2023-01-23T02:05:50.971Z,11.57
2023-01-23T02:08:28.774Z,13.85
2023-01-23T02:10:56.194Z,12.00
2023-01-23T02:13:26.917Z,13.25
2023-01-23T02:15:54.047Z,11.18
2023-01-23T02:18:22.184Z,12.73
2023-01-23T02:20:52.276Z,11.73
2023-01-23T02:23:45.285Z,12.32
2023-01-23T02:26:22.475Z,14.27
2023-01-23T02:28:52.573Z,12.35
2023-01-23T02:31:20.490Z,11.40
2023-01-23T02:33:50.994Z,13.18
2023-01-23T02:36:20.905Z,12.77
2023-01-23T02:39:06.384Z,12.38
2023-01-23T02:41:38.995Z,12.00
2023-01-23T02:44:19.148Z,12.05
2023-01-23T02:46:46.357Z,12.82
2023-01-23T02:49:13.477Z,12.23
2023-01-23T02:51:40.463Z,13.38
2023-01-23T02:54:07.500Z,12.43
2023-01-23T02:56:35.059Z,12.63
2023-01-23T02:59:20.734Z,11.82
2023-01-23T03:01:47.773Z,12.75
2023-01-23T03:04:14.685Z,12.02
2023-01-23T03:06:41.762Z,12.18
2023-01-23T03:09:11.403Z,12.32
2023-01-23T03:11:40.254Z,10.65
2023-01-23T03:14:10.054Z,11.00
2023-01-23T03:16:38.471Z,11.27
2023-01-23T03:19:09.229Z,10.82
2023-01-23T03:21:40.665Z,11.25
2023-01-23T03:24:10.404Z,11.25
2023-01-23T03:26:42.091Z,10.95
2023-01-23T03:29:33.791Z,11.05
2023-01-23T03:32:00.870Z,10.73
2023-01-23T03:34:28.615Z,9.68
2023-01-23T03:36:55.804Z,10.25
2023-01-23T03:39:41.600Z,9.88
2023-01-23T03:42:09.220Z,10.30
2023-01-23T03:44:36.592Z,10.45
2023-01-23T03:47:04.382Z,9.15
2023-01-23T03:49:31.371Z,8.95
2023-01-23T03:51:58.568Z,7.75
2023-01-23T03:54:25.945Z,7.45
2023-01-23T03:56:52.887Z,8.77
2023-01-23T03:59:19.838Z,9.18
2023-01-23T04:01:48.168Z,9.50
2023-01-23T04:04:15.468Z,8.23
2023-01-23T04:06:42.519Z,9.57
2023-01-23T04:09:09.637Z,7.55
2023-01-23T04:11:36.600Z,9.60
2023-01-23T04:14:03.411Z,9.25
2023-01-23T04:16:30.426Z,9.75
2023-01-23T04:18:57.451Z,9.00
2023-01-23T04:21:24.579Z,9.43
2023-01-23T04:23:51.578Z,9.07
2023-01-23T04:26:18.562Z,8.18
2023-01-23T04:28:45.456Z,8.32
2023-01-23T04:31:12.488Z,8.57
2023-01-23T04:33:39.524Z,7.72
2023-01-23T04:36:07.252Z,9.45
2023-01-23T04:38:34.825Z,9.00
2023-01-23T04:41:02.167Z,6.70
2023-01-23T04:43:29.000Z,7.35
2023-01-23T04:45:57.144Z,8.50
2023-01-23T04:48:24.946Z,7.40
2023-01-23T04:50:52.129Z,7.72
2023-01-23T04:53:19.675Z,9.15
2023-01-23T04:55:49.979Z,8.63
2023-01-23T04:58:18.522Z,9.38
2023-01-23T05:00:46.160Z,9.40
2023-01-23T05:03:14.208Z,9.82
2023-01-23T05:05:43.065Z,9.68
2023-01-23T05:08:12.089Z,8.90
2023-01-23T05:10:39.232Z,8.73
2023-01-23T05:13:06.276Z,8.73
2023-01-23T05:15:33.201Z,8.13
2023-01-23T05:18:00.262Z,8.50
2023-01-23T05:20:27.421Z,8.57
2023-01-23T05:22:54.501Z,8.30
2023-01-23T05:25:26.477Z,8.18
2023-01-23T05:27:54.372Z,8.30
2023-01-23T05:30:23.136Z,7.97
2023-01-23T05:32:50.635Z,8.05
2023-01-23T05:35:17.940Z,8.70
2023-01-23T05:37:49.855Z,7.88
2023-01-23T05:40:17.223Z,8.18
2023-01-23T05:42:44.244Z,5.07
2023-01-23T05:45:11.848Z,7.50
2023-01-23T05:47:39.121Z,7.07
2023-01-23T05:50:08.303Z,6.68
2023-01-23T05:52:36.148Z,7.85
2023-01-23T05:55:03.160Z,6.72
2023-01-23T05:57:30.091Z,7.95
2023-01-23T05:59:56.837Z,7.43
2023-01-23T06:02:23.764Z,7.50
2023-01-23T06:04:50.845Z,6.35
2023-01-23T06:07:19.487Z,7.07
2023-01-23T06:09:47.086Z,6.07
2023-01-23T06:12:13.997Z,7.40
2023-01-23T06:14:41.205Z,7.63
2023-01-23T06:17:08.409Z,6.40
2023-01-23T06:19:35.392Z,7.47
2023-01-23T06:22:02.121Z,7.65
2023-01-23T06:24:28.954Z,5.32
2023-01-23T06:26:55.967Z,7.38
2023-01-23T06:29:22.920Z,6.57
2023-01-23T06:31:49.996Z,7.22
2023-01-23T06:34:17.404Z,6.13
2023-01-23T06:36:44.492Z,7.25
2023-01-23T06:39:15.418Z,7.45
2023-01-23T06:41:43.169Z,7.10
2023-01-23T06:44:10.430Z,6.32
2023-01-23T06:46:37.765Z,4.10
2023-01-23T06:49:06.434Z,6.85
2023-01-23T06:51:33.973Z,6.60
2023-01-23T06:54:01.360Z,7.38
2023-01-23T06:56:28.282Z,6.43
2023-01-23T06:58:55.520Z,6.95
2023-01-23T07:01:23.112Z,6.30
2023-01-23T07:03:50.420Z,5.93
2023-01-23T07:06:17.570Z,7.55
2023-01-23T07:08:44.703Z,7.53
2023-01-23T07:11:12.139Z,7.53
2023-01-23T07:13:39.250Z,6.72
2023-01-23T07:16:06.712Z,7.15
2023-01-23T07:18:33.741Z,7.40
2023-01-23T07:21:01.316Z,5.50
2023-01-23T07:23:28.313Z,7.63
2023-01-23T07:26:03.854Z,6.80
2023-01-23T07:28:31.097Z,7.78
2023-01-23T07:30:59.939Z,6.47
2023-01-23T07:33:27.139Z,5.72
2023-01-23T07:35:54.621Z,8.55
2023-01-23T07:38:23.572Z,7.18
2023-01-23T07:40:51.382Z,6.53
2023-01-23T07:43:18.789Z,7.38
2023-01-23T07:45:45.816Z,7.60
2023-01-23T07:48:12.824Z,7.80
2023-01-23T07:50:39.970Z,7.45
2023-01-23T07:53:07.431Z,8.10
2023-01-23T07:55:35.392Z,6.72
2023-01-23T07:58:02.247Z,9.50
2023-01-23T08:00:30.334Z,7.93
2023-01-23T08:02:58.525Z,7.95
2023-01-23T08:05:26.107Z,7.63
2023-01-23T08:08:07.305Z,7.20
2023-01-23T08:10:41.495Z,6.28
2023-01-23T08:13:08.890Z,6.07
2023-01-23T08:15:38.561Z,4.97
2023-01-23T08:18:05.721Z,6.82
2023-01-23T08:20:32.716Z,6.15
2023-01-23T08:23:01.732Z,7.28
2023-01-23T08:25:28.699Z,5.65
2023-01-23T08:27:55.827Z,6.78
2023-01-23T08:30:22.952Z,7.15
2023-01-23T08:32:50.245Z,4.85
2023-01-23T08:35:17.255Z,6.88
2023-01-23T08:37:44.253Z,6.97
2023-01-23T08:40:12.038Z,5.85
2023-01-23T08:42:39.080Z,6.60
2023-01-23T08:45:06.507Z,7.07
2023-01-23T08:47:37.134Z,5.97
2023-01-23T08:50:05.783Z,5.55
2023-01-23T08:52:34.954Z,7.10
2023-01-23T08:55:01.926Z,6.95
2023-01-23T08:57:28.721Z,6.82
2023-01-23T08:59:55.718Z,7.63
2023-01-23T09:02:22.873Z,5.60
2023-01-23T09:04:50.890Z,6.43
2023-01-23T09:07:17.958Z,7.30
2023-01-23T09:09:44.792Z,6.72
2023-01-23T09:12:12.083Z,7.15
2023-01-23T09:14:39.181Z,7.18
2023-01-23T09:17:06.350Z,6.22
2023-01-23T09:19:35.695Z,5.45
2023-01-23T09:22:02.979Z,6.28
2023-01-23T09:24:29.932Z,6.80
2023-01-23T09:26:56.957Z,6.95
2023-01-23T09:29:23.730Z,6.13
2023-01-23T09:31:50.838Z,6.97
2023-01-23T09:34:17.921Z,6.00
2023-01-23T09:36:45.020Z,5.00
2023-01-23T09:39:12.450Z,5.55
2023-01-23T09:41:41.112Z,6.80
2023-01-23T09:44:28.930Z,6.68
2023-01-23T09:47:06.536Z,6.32
2023-01-23T09:49:48.684Z,5.97
2023-01-23T09:52:19.827Z,6.10
2023-01-23T09:55:21.612Z,5.13
2023-01-23T09:57:55.377Z,5.82
2023-01-23T10:00:32.113Z,5.72
2023-01-23T10:03:05.428Z,6.43
2023-01-23T10:05:41.589Z,6.10
2023-01-23T10:08:27.348Z,5.78
2023-01-23T10:10:57.128Z,5.25
2023-01-23T10:14:05.475Z,5.95
2023-01-23T10:16:55.641Z,6.28
2023-01-23T10:19:40.902Z,5.68
2023-01-23T10:22:22.801Z,5.68
2023-01-23T10:24:56.948Z,6.30
2023-01-23T10:27:38.519Z,6.20
2023-01-23T10:30:34.779Z,5.20
2023-01-23T10:33:09.858Z,7.72
2023-01-23T10:35:45.008Z,6.35
2023-01-23T10:38:33.882Z,7.80
2023-01-23T10:41:22.364Z,7.38
2023-01-23T10:43:52.094Z,6.18
2023-01-23T10:46:20.469Z,5.88
2023-01-23T10:48:52.851Z,8.65
2023-01-23T10:51:27.283Z,7.50
2023-01-23T10:54:13.081Z,7.97
2023-01-23T10:56:58.304Z,8.30
2023-01-23T10:59:28.269Z,7.93
2023-01-23T11:02:00.060Z,8.93
2023-01-23T11:04:29.578Z,7.75
2023-01-23T11:07:18.455Z,8.50
2023-01-23T11:09:49.949Z,6.72
2023-01-23T11:12:19.969Z,7.97
2023-01-23T11:14:47.228Z,7.25
2023-01-23T11:17:19.410Z,5.82
2023-01-23T11:19:51.797Z,8.18
2023-01-23T11:22:36.924Z,6.38
2023-01-23T11:25:31.077Z,7.70
2023-01-23T11:28:00.762Z,7.65
2023-01-23T11:30:41.545Z,7.55
2023-01-23T11:33:08.509Z,7.95
2023-01-23T11:35:44.491Z,7.35
2023-01-23T11:38:17.982Z,8.00
2023-01-23T11:40:48.404Z,8.32
2023-01-23T11:43:17.325Z,8.70
2023-01-23T11:46:11.538Z,8.15
2023-01-23T11:48:57.344Z,8.07
2023-01-23T11:51:38.411Z,8.35
2023-01-23T11:54:14.409Z,7.55
2023-01-23T11:56:47.184Z,7.03
2023-01-23T11:59:22.665Z,8.23
2023-01-23T12:02:14.352Z,7.82
2023-01-23T12:04:52.618Z,8.35
2023-01-23T12:07:23.179Z,7.68
2023-01-23T12:09:58.817Z,6.90
2023-01-23T12:12:25.789Z,8.20
2023-01-23T12:15:33.157Z,7.45
2023-01-23T12:18:28.260Z,6.22
2023-01-23T12:21:19.702Z,7.85
2023-01-23T12:23:55.340Z,7.95
2023-01-23T12:26:23.335Z,7.63
2023-01-23T12:29:11.839Z,7.63
2023-01-23T12:31:48.485Z,8.05
2023-01-23T12:34:21.289Z,7.15
2023-01-23T12:37:14.275Z,7.22
2023-01-23T12:39:43.636Z,5.75
2023-01-23T12:42:21.448Z,7.05
2023-01-23T12:45:03.892Z,7.95
2023-01-23T12:47:36.752Z,7.32
2023-01-23T12:50:16.329Z,7.40
2023-01-23T12:52:50.104Z,5.43
2023-01-23T12:55:19.672Z,6.15
2023-01-23T12:57:59.456Z,6.18
2023-01-23T13:00:50.312Z,6.18
2023-01-23T13:03:46.014Z,6.50
2023-01-23T13:06:43.303Z,7.10
2023-01-23T13:09:17.827Z,6.88
2023-01-23T13:12:22.678Z,6.93
2023-01-23T13:15:12.917Z,4.47
2023-01-23T13:17:49.581Z,5.95
2023-01-23T13:20:41.525Z,6.63
2023-01-23T13:23:27.976Z,6.45
2023-01-23T13:26:16.708Z,6.60
2023-01-23T13:28:48.722Z,6.55
2023-01-23T13:31:27.464Z,7.60
2023-01-23T13:34:06.524Z,7.50
2023-01-23T13:36:41.383Z,6.40
2023-01-23T13:39:17.721Z,6.82
2023-01-23T13:41:45.756Z,5.78
2023-01-23T13:44:19.100Z,5.95
2023-01-23T14:24:55.527Z,8.13
2023-01-23T14:27:53.339Z,8.00
2023-01-23T14:30:27.404Z,8.75
2023-01-23T14:32:54.801Z,8.27
2023-01-23T14:35:30.306Z,8.20
2023-01-23T14:38:00.847Z,6.93
2023-01-23T14:40:35.204Z,7.78
2023-01-23T14:43:08.088Z,8.05
2023-01-23T14:45:36.588Z,7.70
2023-01-23T14:48:07.408Z,8.55
2023-01-23T14:50:35.326Z,7.03
2023-01-23T14:53:07.872Z,7.07
2023-01-23T14:55:37.973Z,6.05
2023-01-23T14:58:06.136Z,6.90
2023-01-23T15:00:35.991Z,7.00
2023-01-23T15:03:04.930Z,4.53
2023-01-23T15:05:32.943Z,8.48
2023-01-23T15:08:03.879Z,6.82
2023-01-23T15:10:51.662Z,5.82
2023-01-23T15:13:34.349Z,8.48
2023-01-23T15:16:04.106Z,7.95
2023-01-23T15:18:35.060Z,8.93
2023-01-23T15:21:33.495Z,8.65
2023-01-23T15:24:09.204Z,8.40
2023-01-23T15:26:37.849Z,8.82
2023-01-23T15:29:10.847Z,9.65
2023-01-23T15:31:40.912Z,7.93
2023-01-23T15:34:16.916Z,8.60
2023-01-23T15:36:50.992Z,9.23
2023-01-23T15:39:23.058Z,8.25
2023-01-23T15:41:53.373Z,9.55
2023-01-23T15:44:22.304Z,7.85
2023-01-23T15:46:49.423Z,7.75
2023-01-23T15:49:25.535Z,8.98
2023-01-23T15:51:55.900Z,9.20
2023-01-23T15:54:34.848Z,8.30
2023-01-23T15:57:08.003Z,8.02
2023-01-23T15:59:36.895Z,8.87
2023-01-23T16:02:05.558Z,10.15
2023-01-23T16:04:33.073Z,9.30
2023-01-23T16:07:05.267Z,9.43
2023-01-23T16:09:36.085Z,8.32
2023-01-23T16:12:03.573Z,9.13
2023-01-23T16:14:30.575Z,7.60
2023-01-23T16:17:04.698Z,8.48
2023-01-23T16:19:38.653Z,9.13
2023-01-23T16:22:06.328Z,8.73
2023-01-23T16:24:36.997Z,7.22
2023-01-23T16:27:06.998Z,9.82
2023-01-23T16:29:35.525Z,9.50
2023-01-23T16:32:03.177Z,8.65
2023-01-23T16:34:30.604Z,10.00
2023-01-23T16:37:00.974Z,8.95
2023-01-23T16:39:31.567Z,9.30
2023-01-23T16:41:58.437Z,8.73
2023-01-23T16:44:27.012Z,10.20
2023-01-23T16:46:54.429Z,8.93
2023-01-23T16:49:21.590Z,9.55
2023-01-23T16:51:56.632Z,9.82
2023-01-23T16:54:24.407Z,10.05
2023-01-23T16:56:53.136Z,8.35
2023-01-23T16:59:34.515Z,9.70
2023-01-23T17:02:06.072Z,9.63
2023-01-23T17:04:32.906Z,9.73
2023-01-23T17:06:59.853Z,8.32
2023-01-23T17:09:26.846Z,9.68
2023-01-23T17:11:56.485Z,8.82
2023-01-23T17:14:28.076Z,8.77
2023-01-23T17:17:06.233Z,8.07
2023-01-23T17:19:37.760Z,7.85
2023-01-23T17:22:06.423Z,8.25
2023-01-23T17:24:33.424Z,8.32
2023-01-23T17:27:00.101Z,9.23
2023-01-23T17:29:27.669Z,9.70
2023-01-23T17:31:54.849Z,9.15
2023-01-23T17:34:24.567Z,9.05
2023-01-23T17:36:54.497Z,8.95
2023-01-23T17:39:21.693Z,9.25
2023-01-23T17:41:48.840Z,8.13
2023-01-23T17:44:15.822Z,8.88
2023-01-23T17:46:42.793Z,8.85
2023-01-23T17:49:31.051Z,8.82
2023-01-23T17:52:00.189Z,8.38
2023-01-23T17:54:27.215Z,8.73
2023-01-23T17:56:54.722Z,8.85
2023-01-23T17:59:21.902Z,8.63
2023-01-23T18:01:49.018Z,8.10
2023-01-23T18:04:21.198Z,8.75
2023-01-23T18:06:48.790Z,8.77
2023-01-23T18:09:16.383Z,7.93
2023-01-23T18:11:52.019Z,8.95
2023-01-23T18:14:31.670Z,8.43
2023-01-23T18:16:58.559Z,8.18
2023-01-23T18:19:27.862Z,8.30
2023-01-23T18:21:57.440Z,9.45
2023-01-23T18:24:30.725Z,7.53
2023-01-23T18:27:00.692Z,9.15
2023-01-23T18:29:36.700Z,8.30
2023-01-23T18:32:39.939Z,7.70
2023-01-23T18:35:12.510Z,9.13
2023-01-23T18:37:45.281Z,8.15
2023-01-23T18:40:28.988Z,7.78
2023-01-23T18:42:59.584Z,7.53
2023-01-23T18:45:27.808Z,7.32
2023-01-23T18:47:55.479Z,8.20
2023-01-23T18:50:23.138Z,8.10
2023-01-23T18:53:17.486Z,7.85
2023-01-23T18:56:05.871Z,5.57
2023-01-23T18:59:13.002Z,7.68
2023-01-23T19:02:00.001Z,7.78
2023-01-23T19:05:12.566Z,6.82
2023-01-23T19:07:40.300Z,6.72
2023-01-23T19:10:13.237Z,6.28
2023-01-23T19:13:01.409Z,7.80
2023-01-23T19:15:56.318Z,7.13
2023-01-23T19:18:48.621Z,7.40
2023-01-23T19:21:15.680Z,7.07
2023-01-23T19:23:54.242Z,7.28
2023-01-23T19:26:21.881Z,7.15
2023-01-23T19:28:50.936Z,7.30
2023-01-23T19:31:26.208Z,6.78
2023-01-23T19:33:53.885Z,7.60
2023-01-23T19:36:22.271Z,7.20
2023-01-23T19:38:50.087Z,7.85
2023-01-23T19:41:23.572Z,7.22
2023-01-23T19:43:52.954Z,6.25
2023-01-23T19:46:21.990Z,7.07
2023-01-23T19:48:49.030Z,6.47
2023-01-23T19:51:19.577Z,6.72
2023-01-23T19:53:47.325Z,6.93
2023-01-23T19:56:18.100Z,7.20
2023-01-23T19:58:46.198Z,6.93
2023-01-23T20:01:41.218Z,6.68
2023-01-23T20:04:13.544Z,6.68
2023-01-23T20:06:40.985Z,6.15
2023-01-23T20:09:11.464Z,6.57
2023-01-23T20:11:38.490Z,7.35
2023-01-23T20:14:05.510Z,7.03
2023-01-23T20:16:32.550Z,6.38
2023-01-23T20:18:59.848Z,6.97
2023-01-23T20:21:26.837Z,5.35
2023-01-23T20:23:56.013Z,6.13
2023-01-23T20:26:23.839Z,6.93
2023-01-23T20:28:55.729Z,7.28
2023-01-23T20:31:22.881Z,6.10
2023-01-23T20:33:49.963Z,6.22
2023-01-23T20:36:17.184Z,6.40
2023-01-23T20:38:44.266Z,5.78
2023-01-23T20:41:16.011Z,5.28
2023-01-23T20:43:43.420Z,6.63
2023-01-23T20:46:11.704Z,7.05
2023-01-23T20:48:41.929Z,5.85
2023-01-23T20:51:10.462Z,6.43
2023-01-23T20:53:39.739Z,6.15
2023-01-23T20:56:09.691Z,6.25
2023-01-23T20:58:57.988Z,6.53
2023-01-23T21:01:28.081Z,6.75
2023-01-23T21:03:55.608Z,6.20
2023-01-23T21:06:23.038Z,6.05
2023-01-23T21:08:49.820Z,6.03
2023-01-23T21:11:19.932Z,6.88
2023-01-23T21:13:53.564Z,6.65
2023-01-23T21:16:20.918Z,5.22
2023-01-23T21:18:48.180Z,6.13
2023-01-23T21:21:18.333Z,6.75
2023-01-23T21:23:52.338Z,5.85
2023-01-23T21:26:22.792Z,5.57
2023-01-23T21:28:51.624Z,6.20
2023-01-23T21:31:39.612Z,6.35
2023-01-23T21:34:10.126Z,6.15
2023-01-23T21:36:37.869Z,5.75
2023-01-23T21:39:06.715Z,6.18
2023-01-23T21:41:34.943Z,6.22
2023-01-23T21:44:01.906Z,6.82
2023-01-23T21:46:28.862Z,5.55
2023-01-23T21:48:55.840Z,4.40
2023-01-23T21:51:25.489Z,5.75
2023-01-23T21:53:52.480Z,6.78
2023-01-23T21:56:21.222Z,6.80
2023-01-23T21:58:48.647Z,4.95
2023-01-23T22:01:32.713Z,5.90
2023-01-23T22:04:02.492Z,6.32
2023-01-23T22:06:30.858Z,6.80
2023-01-23T22:08:58.220Z,7.30
2023-01-23T22:11:25.568Z,6.88
2023-01-23T22:13:53.259Z,5.72
2023-01-23T22:16:22.939Z,6.35
2023-01-23T22:18:55.223Z,7.40
2023-01-23T22:21:22.433Z,6.95
2023-01-23T22:23:49.160Z,5.65
2023-01-23T22:26:17.622Z,6.45
2023-01-23T22:28:44.574Z,6.63
2023-01-23T22:31:14.323Z,5.95
2023-01-23T22:33:47.561Z,6.80
2023-01-23T22:36:18.077Z,6.28
2023-01-23T22:38:50.133Z,7.57
2023-01-23T22:41:17.001Z,7.47
2023-01-23T22:43:44.092Z,4.75
2023-01-23T22:46:19.219Z,6.82
2023-01-23T22:48:46.341Z,5.70
2023-01-23T22:51:16.405Z,7.40
2023-01-23T22:53:44.168Z,6.80
2023-01-23T22:56:12.182Z,7.45
2023-01-23T22:58:39.903Z,7.95
2023-01-23T23:01:07.299Z,7.30
2023-01-23T23:03:35.248Z,7.75
2023-01-23T23:06:08.785Z,7.93
2023-01-23T23:08:36.387Z,7.95
2023-01-23T23:11:10.080Z,7.93
2023-01-23T23:13:39.229Z,7.70
2023-01-23T23:16:15.011Z,6.82
2023-01-23T23:18:42.319Z,7.80
2023-01-23T23:21:12.124Z,7.60
2023-01-23T23:23:39.959Z,6.82
2023-01-23T23:26:09.712Z,8.25
2023-01-23T23:28:37.779Z,7.55
2023-01-23T23:31:06.458Z,7.10
2023-01-23T23:33:34.003Z,8.50
2023-01-23T23:36:01.080Z,8.25
2023-01-23T23:38:28.136Z,6.68
2023-01-23T23:41:00.215Z,7.38
2023-01-23T23:43:28.293Z,7.10
2023-01-23T23:45:57.584Z,8.65
2023-01-23T23:48:25.722Z,7.60
2023-01-23T23:50:53.460Z,7.50
2023-01-23T23:53:21.730Z,9.23
2023-01-23T23:55:48.895Z,8.15
2023-01-23T23:58:16.329Z,9.15
